Time;durP1;ratioP1;P1;durP2;ratioP2;P2;SDS_P1;SDS_P2;PMS_P1;PMS_P2;Temp;Humidity;BMP_temperature;BMP_pressure;BME280_temperature;BME280_humidity;BME280_pressure;Samples;Min_cycle;Max_cycle;Signal;HPM_P1;HPM_P2
2021/07/05 00:02:09;;;;;;;6.78;3.88;;;;;;;18.45;53.35;93486.13;5072370;28;20021;-78
2021/07/05 00:04:35;;;;;;;5.45;3.92;;;;;;;18.42;53.58;93486.88;5074913;28;20035;-78
2021/07/05 00:07:01;;;;;;;5.75;3.92;;;;;;;18.39;53.48;93485.66;5062339;28;20074;-79
2021/07/05 00:09:26;;;;;;;5.80;3.45;;;;;;;18.34;53.59;93479.84;5070021;28;20033;-79
2021/07/05 00:11:52;;;;;;;12.43;4.53;;;;;;;18.31;53.57;93492.16;5068755;28;20158;-79
2021/07/05 00:14:18;;;;;;;6.13;4.03;;;;;;;18.27;54.18;93485.94;5058828;28;20067;-79
2021/07/05 00:16:43;;;;;;;7.00;4.32;;;;;;;18.22;54.23;93478.19;5072759;28;20177;-79
2021/07/05 00:19:09;;;;;;;8.27;4.28;;;;;;;18.18;54.30;93474.69;5067889;28;20022;-79
2021/07/05 00:21:34;;;;;;;7.32;4.03;;;;;;;18.13;54.10;93478.47;5071763;28;20077;-79
2021/07/05 00:24:00;;;;;;;5.80;3.97;;;;;;;18.09;54.35;93472.28;5063497;28;20107;-79
2021/07/05 00:26:26;;;;;;;9.43;4.47;;;;;;;18.07;54.47;93473.78;5054481;28;20051;-79
2021/07/05 00:28:51;;;;;;;7.60;4.30;;;;;;;18.06;54.61;93466.88;5062059;28;20077;-79
2021/07/05 00:31:17;;;;;;;7.45;4.40;;;;;;;18.03;54.41;93466.47;5061232;28;20064;-79
2021/07/05 00:33:42;;;;;;;8.10;4.40;;;;;;;18.00;55.22;93450.22;5060597;28;20503;-79
2021/07/05 00:36:08;;;;;;;8.35;4.72;;;;;;;17.95;55.20;93451.34;5054918;28;20127;-79
2021/07/05 00:38:33;;;;;;;6.40;4.68;;;;;;;17.94;54.86;93440.94;5062671;28;20024;-79
2021/07/05 00:40:59;;;;;;;8.90;3.85;;;;;;;17.91;54.59;93441.66;5063265;28;20488;-79
2021/07/05 00:43:24;;;;;;;6.32;4.78;;;;;;;17.91;54.91;93445.16;5068102;28;20037;-79
2021/07/05 00:45:50;;;;;;;8.45;4.85;;;;;;;17.88;54.85;93455.88;5062198;28;20554;-79
2021/07/05 00:48:15;;;;;;;7.60;4.10;;;;;;;17.88;53.75;93445.09;5070015;28;20029;-79
2021/07/05 00:50:41;;;;;;;7.10;4.50;;;;;;;17.90;54.45;93440.13;5059506;28;20031;-79
2021/07/05 00:53:06;;;;;;;10.65;4.78;;;;;;;17.90;54.79;93438.19;5065225;28;20032;-79
2021/07/05 00:55:33;;;;;;;6.47;4.25;;;;;;;17.89;54.69;93446.63;5071383;28;20027;-79
2021/07/05 00:57:59;;;;;;;9.73;4.20;;;;;;;17.87;54.67;93451.63;5064340;28;20073;-79
2021/07/05 01:00:26;;;;;;;8.45;4.47;;;;;;;17.88;54.92;93448.56;5058546;28;20375;-79
2021/07/05 01:02:53;;;;;;;6.05;4.53;;;;;;;17.91;55.03;93460.53;5062776;28;20016;-79
2021/07/05 01:05:19;;;;;;;7.45;4.63;;;;;;;17.91;54.36;93455.13;5071413;28;20526;-79
2021/07/05 01:07:46;;;;;;;12.27;5.63;;;;;;;17.92;54.10;93454.00;5072698;28;20369;-79
2021/07/05 01:10:13;;;;;;;9.73;5.68;;;;;;;17.94;54.10;93457.09;5065922;28;20029;-79
2021/07/05 01:12:39;;;;;;;11.02;4.85;;;;;;;17.95;54.25;93454.03;5063571;28;20021;-79
2021/07/05 01:15:08;;;;;;;6.63;4.95;;;;;;;17.95;54.31;93453.25;5062607;28;20686;-79
2021/07/05 01:17:33;;;;;;;11.27;5.30;;;;;;;17.91;55.28;93449.75;5071428;28;20057;-79
2021/07/05 01:19:59;;;;;;;8.30;5.20;;;;;;;17.91;54.57;93460.53;5070260;28;20522;-78
2021/07/05 01:22:24;;;;;;;7.53;4.75;;;;;;;17.88;55.08;93459.34;5051512;28;20025;-77
2021/07/05 01:24:50;;;;;;;11.32;4.60;;;;;;;17.86;54.71;93450.84;5060138;28;20035;-78
2021/07/05 01:27:16;;;;;;;7.32;4.65;;;;;;;17.84;54.58;93456.59;5070067;28;20050;-78
2021/07/05 01:29:42;;;;;;;9.55;5.10;;;;;;;17.84;55.14;93453.13;5056612;28;20598;-78
2021/07/05 01:32:08;;;;;;;13.65;4.97;;;;;;;17.82;55.35;93450.78;5052274;28;20112;-78
2021/07/05 01:34:34;;;;;;;13.45;5.18;;;;;;;17.78;54.71;93455.34;5064800;28;20515;-78
2021/07/05 01:37:00;;;;;;;8.23;5.20;;;;;;;17.76;54.70;93446.84;5066188;28;20024;-78
2021/07/05 01:39:25;;;;;;;10.23;5.00;;;;;;;17.75;54.71;93456.09;5051998;28;20029;-78
2021/07/05 01:41:51;;;;;;;10.25;4.97;;;;;;;17.75;54.61;93448.00;5065534;28;20044;-78
2021/07/05 01:44:16;;;;;;;14.07;5.43;;;;;;;17.71;55.46;93447.19;5067710;28;20024;-77
2021/07/05 01:46:42;;;;;;;12.23;5.18;;;;;;;17.69;55.84;93448.69;5065777;28;20025;-78
2021/07/05 01:49:08;;;;;;;9.52;5.40;;;;;;;17.64;56.10;93441.72;5050054;28;20542;-78
2021/07/05 01:51:34;;;;;;;7.55;4.57;;;;;;;17.59;55.89;93442.81;5062074;28;20025;-78
2021/07/05 01:54:00;;;;;;;6.32;4.30;;;;;;;17.58;56.33;93437.78;5061932;28;20024;-78
2021/07/05 01:56:25;;;;;;;6.38;4.28;;;;;;;17.54;56.56;93439.66;5054395;28;20032;-78
2021/07/05 01:58:51;;;;;;;7.70;4.55;;;;;;;17.49;56.60;93440.78;5068811;28;20025;-78
2021/07/05 02:01:17;;;;;;;9.38;4.50;;;;;;;17.49;56.44;93450.78;5052993;28;20476;-77
2021/07/05 02:03:42;;;;;;;11.45;5.55;;;;;;;17.50;56.78;93444.25;5068689;28;20032;-78
2021/07/05 02:06:08;;;;;;;6.55;4.63;;;;;;;17.49;56.36;93445.41;5061606;28;20384;-78
2021/07/05 02:08:34;;;;;;;8.15;4.78;;;;;;;17.44;56.74;93452.66;5059978;28;20029;-77
2021/07/05 02:10:59;;;;;;;6.70;5.03;;;;;;;17.40;56.71;93451.03;5055518;28;20020;-78
2021/07/05 02:13:28;;;;;;;14.50;4.97;;;;;;;17.36;56.77;93451.03;5057112;28;20507;-78
2021/07/05 02:15:57;;;;;;;7.85;4.65;;;;;;;17.36;56.37;93453.72;5054617;28;20027;-78
2021/07/05 02:18:23;;;;;;;8.45;4.95;;;;;;;17.34;56.63;93447.91;5061761;28;20162;-78
2021/07/05 02:20:49;;;;;;;6.38;4.40;;;;;;;17.36;56.53;93453.72;5061876;28;20039;-78
2021/07/05 02:23:17;;;;;;;15.00;5.78;;;;;;;17.35;56.63;93444.06;5052619;28;20021;-78
2021/07/05 02:25:43;;;;;;;14.45;5.70;;;;;;;17.34;56.56;93444.44;5056505;28;20024;-78
2021/07/05 02:28:15;;;;;;;8.70;5.32;;;;;;;17.35;56.40;93437.91;5068678;28;20109;-78
2021/07/05 02:30:43;;;;;;;8.65;5.22;;;;;;;17.34;56.50;93437.13;5057907;28;20085;-78
2021/07/05 02:33:09;;;;;;;7.50;4.85;;;;;;;17.34;57.33;93439.03;5062213;28;20029;-78
2021/07/05 02:35:35;;;;;;;7.05;4.55;;;;;;;17.33;57.88;93434.81;5061164;28;20373;-78
2021/07/05 02:38:04;;;;;;;8.15;5.10;;;;;;;17.30;58.12;93430.94;5055982;28;20112;-78
2021/07/05 02:40:32;;;;;;;9.85;5.00;;;;;;;17.26;57.94;93440.88;5067360;28;20052;-77
2021/07/05 02:42:58;;;;;;;9.43;4.93;;;;;;;17.23;58.26;93444.28;5068296;28;20024;-78
2021/07/05 02:45:25;;;;;;;6.57;4.95;;;;;;;17.21;58.33;93443.88;5069741;28;20039;-78
2021/07/05 02:48:07;;;;;;;9.55;5.43;;;;;;;17.19;58.19;93441.53;5078266;28;20021;-78
2021/07/05 02:50:32;;;;;;;8.65;5.65;;;;;;;17.17;58.06;93445.75;5081890;28;20028;-78
2021/07/05 02:52:59;;;;;;;8.73;5.13;;;;;;;17.17;58.29;93448.44;5084683;28;20021;-78
2021/07/05 02:55:25;;;;;;;7.53;4.75;;;;;;;17.15;58.49;93450.72;5077400;28;20040;-78
2021/07/05 02:57:52;;;;;;;9.43;5.07;;;;;;;17.14;57.52;93447.25;5064475;28;20027;-78
2021/07/05 03:00:24;;;;;;;7.47;5.15;;;;;;;17.16;57.61;93441.53;5067438;28;20024;-78
2021/07/05 03:02:50;;;;;;;;;;;;;;;17.14;58.13;93446.50;5049618;28;20056;-78
2021/07/05 03:05:18;;;;;;;7.35;5.35;;;;;;;17.09;58.55;93441.41;5055415;28;19959;-78
2021/07/05 03:07:45;;;;;;;7.38;4.78;;;;;;;17.09;58.75;93444.09;5072421;28;20507;-77
2021/07/05 03:10:12;;;;;;;7.45;4.60;;;;;;;17.09;59.05;93446.78;5054266;28;20025;-78
2021/07/05 03:12:38;;;;;;;10.35;4.53;;;;;;;17.07;59.27;93449.06;5056462;28;20025;-78
2021/07/05 03:15:09;;;;;;;6.68;4.70;;;;;;;17.05;59.37;93452.91;5070208;28;20082;-78
2021/07/05 03:17:36;;;;;;;7.50;4.57;;;;;;;17.06;59.70;93451.00;5052956;28;20037;-78
2021/07/05 03:20:04;;;;;;;9.80;5.15;;;;;;;17.06;59.78;93453.69;5069963;28;20124;-77
2021/07/05 03:22:29;;;;;;;11.15;5.47;;;;;;;17.08;58.67;93445.25;5065540;28;20543;-77
2021/07/05 03:24:55;;;;;;;9.95;5.10;;;;;;;17.11;58.04;93457.97;5053233;28;20111;-77
2021/07/05 03:27:20;;;;;;;7.18;5.10;;;;;;;17.09;58.45;93462.94;5066932;28;20027;-77
2021/07/05 03:29:46;;;;;;;8.60;5.28;;;;;;;17.17;58.38;93457.28;5052482;28;20035;-78
2021/07/05 03:32:11;;;;;;;9.02;5.10;;;;;;;17.21;58.21;93451.97;5071276;28;20126;-78
2021/07/05 03:34:37;;;;;;;8.73;5.32;;;;;;;17.29;58.12;93450.91;5062242;28;20071;-77
2021/07/05 03:37:02;;;;;;;7.53;5.25;;;;;;;17.34;57.61;93447.91;5055016;28;20032;-76
2021/07/05 03:39:28;;;;;;;11.52;4.90;;;;;;;17.42;58.52;93448.75;5072418;28;20520;-77
2021/07/05 03:41:53;;;;;;;8.85;4.88;;;;;;;17.47;59.22;93445.00;5070845;28;20052;-77
2021/07/05 03:44:19;;;;;;;11.60;5.05;;;;;;;17.53;57.13;93443.53;5050934;28;20021;-77
2021/07/05 03:46:44;;;;;;;7.68;4.65;;;;;;;17.57;56.82;93444.34;5052356;28;20048;-78
2021/07/05 03:49:10;;;;;;;8.15;4.95;;;;;;;17.65;57.25;93451.38;5063010;28;20057;-77
2021/07/05 03:51:36;;;;;;;7.47;4.53;;;;;;;17.73;57.03;93436.81;5057527;28;20024;-77
2021/07/05 03:54:01;;;;;;;11.82;4.70;;;;;;;17.82;57.44;93440.00;5071552;28;20376;-76
2021/07/05 03:56:27;;;;;;;7.10;4.95;;;;;;;17.92;57.10;93443.22;5062801;28;20043;-77
2021/07/05 03:58:53;;;;;;;14.95;6.38;;;;;;;18.02;56.18;93445.25;5062294;28;20021;-77
2021/07/05 04:01:18;;;;;;;11.25;5.35;;;;;;;18.08;55.55;93441.06;5052680;28;20021;-76
2021/07/05 04:03:44;;;;;;;8.55;5.07;;;;;;;18.16;55.70;93442.69;5052260;28;20126;-77
2021/07/05 04:06:09;;;;;;;7.65;4.40;;;;;;;18.32;55.01;93441.66;5053119;28;20033;-76
2021/07/05 04:08:35;;;;;;;7.45;4.80;;;;;;;18.42;54.17;93444.47;5065865;28;20021;-77
2021/07/05 04:11:03;;;;;;;10.57;5.00;;;;;;;18.50;53.96;93449.91;5063011;28;20102;-77
2021/07/05 04:13:29;;;;;;;15.20;4.80;;;;;;;18.55;53.52;93441.50;5051449;28;20036;-77
2021/07/05 04:15:55;;;;;;;8.00;4.75;;;;;;;18.60;53.53;93438.44;5057405;28;20032;-77
2021/07/05 04:18:20;;;;;;;9.75;4.82;;;;;;;18.68;55.16;93444.66;5051643;28;20156;-77
2021/07/05 04:20:47;;;;;;;9.05;5.03;;;;;;;18.73;54.23;93436.22;5051684;28;20029;-77
2021/07/05 04:23:12;;;;;;;9.40;5.10;;;;;;;18.79;53.55;93429.38;5058056;28;20127;-77
2021/07/05 04:25:38;;;;;;;12.07;4.97;;;;;;;18.92;53.57;93433.28;5054413;28;20104;-77
2021/07/05 04:28:04;;;;;;;7.50;4.45;;;;;;;18.97;53.79;93426.75;5066948;28;20021;-77
2021/07/05 04:30:30;;;;;;;10.40;5.57;;;;;;;19.04;53.12;93429.50;5062132;28;20021;-77
2021/07/05 04:32:57;;;;;;;14.13;5.28;;;;;;;19.16;53.06;93413.00;5051522;28;20037;-77
2021/07/05 04:35:23;;;;;;;17.45;5.75;;;;;;;19.27;52.86;93421.13;5061469;28;20085;-77
2021/07/05 04:37:50;;;;;;;10.00;5.30;;;;;;;19.40;53.05;93414.28;5064134;28;20040;-77
2021/07/05 04:40:19;;;;;;;10.50;6.03;;;;;;;19.50;52.66;93417.38;5069740;28;20493;-77
2021/07/05 04:42:45;;;;;;;19.75;6.93;;;;;;;19.55;52.46;93425.91;5050850;28;20048;-77
2021/07/05 04:45:13;;;;;;;11.88;6.28;;;;;;;19.64;51.33;93422.84;5067804;28;20028;-77
2021/07/05 04:47:38;;;;;;;15.65;5.85;;;;;;;19.58;52.20;93425.16;5069700;28;20043;-78
2021/07/05 04:50:06;;;;;;;12.80;6.07;;;;;;;19.54;51.85;93423.56;5057660;28;20115;-79
2021/07/05 04:52:31;;;;;;;15.38;6.07;;;;;;;19.49;53.17;93421.25;5053139;28;20025;-78
2021/07/05 04:54:57;;;;;;;10.00;5.60;;;;;;;19.46;52.29;93433.59;5055912;28;20051;-78
2021/07/05 04:57:22;;;;;;;8.43;5.30;;;;;;;19.43;52.08;93428.94;5070925;28;20115;-76
2021/07/05 04:59:48;;;;;;;9.35;5.55;;;;;;;19.38;51.36;93437.44;5060589;28;20040;-76
2021/07/05 05:02:13;;;;;;;9.82;6.20;;;;;;;19.43;50.99;93450.56;5063028;28;20029;-76
2021/07/05 05:04:39;;;;;;;11.18;5.80;;;;;;;19.42;50.97;93449.78;5050532;28;20036;-76
2021/07/05 05:07:04;;;;;;;7.28;4.70;;;;;;;19.48;50.68;93452.91;5054046;28;20130;-76
2021/07/05 05:09:30;;;;;;;9.35;4.78;;;;;;;19.51;51.19;93452.16;5070707;28;20376;-76
2021/07/05 05:11:55;;;;;;;14.00;4.78;;;;;;;19.59;50.87;93450.25;5070506;28;20049;-76
2021/07/05 05:14:21;;;;;;;9.80;5.60;;;;;;;19.61;52.25;93450.66;5070837;28;20541;-76
2021/07/05 05:16:48;;;;;;;13.10;5.13;;;;;;;19.64;52.72;93447.16;5053367;28;20033;-76
2021/07/05 05:19:14;;;;;;;11.80;4.63;;;;;;;19.65;52.34;93441.38;5064210;28;20455;-76
2021/07/05 05:21:40;;;;;;;8.52;4.57;;;;;;;19.68;53.18;93442.56;5060083;28;20024;-76
2021/07/05 05:24:05;;;;;;;12.32;5.25;;;;;;;19.70;52.96;93431.38;5055666;28;20081;-76
2021/07/05 05:26:31;;;;;;;13.10;4.72;;;;;;;19.72;52.65;93429.88;5062115;28;20487;-77
2021/07/05 05:28:57;;;;;;;13.90;4.68;;;;;;;19.79;52.74;93434.53;5050165;28;20099;-77
2021/07/05 05:31:23;;;;;;;14.43;4.38;;;;;;;19.89;51.14;93431.09;5054851;28;20017;-77
2021/07/05 05:33:48;;;;;;;10.45;4.90;;;;;;;19.94;49.76;93427.22;5048539;28;20112;-76
2021/07/05 05:36:14;;;;;;;8.52;5.07;;;;;;;20.02;48.24;93423.38;5051535;28;20035;-76
2021/07/05 05:38:45;;;;;;;11.27;5.55;;;;;;;20.00;49.04;93423.75;5051310;28;20444;-76
2021/07/05 05:41:10;;;;;;;11.20;5.03;;;;;;;20.08;48.55;93438.06;5061802;28;20131;-76
2021/07/05 05:43:36;;;;;;;16.55;4.85;;;;;;;20.02;49.12;93434.97;5053454;28;20547;-76
2021/07/05 05:46:01;;;;;;;12.27;5.38;;;;;;;20.04;48.82;93429.94;5052163;28;20055;-76
2021/07/05 05:48:29;;;;;;;11.88;5.00;;;;;;;20.06;48.14;93431.50;5070329;28;20373;-76
2021/07/05 05:50:55;;;;;;;15.35;4.43;;;;;;;20.14;48.61;93433.84;5069976;28;20038;-77
2021/07/05 05:53:20;;;;;;;10.93;4.75;;;;;;;20.30;48.14;93443.53;5069072;28;20031;-77
2021/07/05 05:55:47;;;;;;;6.75;4.68;;;;;;;20.41;47.23;93436.19;5053858;28;20033;-77
2021/07/05 05:58:16;;;;;;;10.40;4.85;;;;;;;20.46;45.99;93443.94;5059618;28;20028;-77
2021/07/05 06:00:42;;;;;;;8.95;5.03;;;;;;;20.46;45.42;93443.94;5053365;28;20112;-76
2021/07/05 06:03:08;;;;;;;14.18;4.50;;;;;;;20.42;46.79;93456.69;5049592;28;20099;-76
2021/07/05 06:05:33;;;;;;;14.73;4.60;;;;;;;20.38;46.42;93453.97;5065050;28;20107;-76
2021/07/05 06:07:59;;;;;;;12.25;4.78;;;;;;;20.32;46.39;93444.69;5068767;28;20487;-76
2021/07/05 06:10:25;;;;;;;9.00;5.07;;;;;;;20.25;46.97;93450.06;5049592;28;20037;-76
2021/07/05 06:12:53;;;;;;;8.18;4.35;;;;;;;20.37;46.81;93446.25;5049692;28;20158;-76
2021/07/05 06:15:19;;;;;;;16.08;4.53;;;;;;;20.41;47.20;93447.00;5049415;28;20526;-76
2021/07/05 06:17:46;;;;;;;12.25;5.13;;;;;;;20.52;48.45;93436.22;5049745;28;20033;-78
2021/07/05 06:20:13;;;;;;;10.90;4.88;;;;;;;20.58;46.62;93434.66;5050637;28;20510;-78
2021/07/05 06:22:46;;;;;;;7.07;4.22;;;;;;;20.63;46.29;93428.88;5048515;28;20483;-78
2021/07/05 06:25:11;;;;;;;13.68;4.75;;;;;;;20.68;47.25;93423.09;5050978;28;20495;-78
2021/07/05 06:27:38;;;;;;;7.57;4.47;;;;;;;20.67;48.24;93420.75;5056913;28;20108;-78
2021/07/05 06:30:04;;;;;;;8.55;4.72;;;;;;;20.70;48.56;93415.34;5060914;28;20484;-78
2021/07/05 06:32:30;;;;;;;10.48;4.53;;;;;;;20.82;49.56;93397.91;5063574;28;20492;-78
2021/07/05 06:34:55;;;;;;;15.73;5.53;;;;;;;21.02;49.33;93393.66;5048565;28;20032;-78
2021/07/05 06:37:21;;;;;;;11.23;5.38;;;;;;;21.24;47.73;93405.19;5049864;28;20074;-78
2021/07/05 06:39:46;;;;;;;10.13;4.63;;;;;;;21.42;48.12;93394.31;5069436;28;20094;-78
2021/07/05 06:42:12;;;;;;;7.10;4.82;;;;;;;21.60;46.68;93388.06;5070292;28;20062;-76
2021/07/05 06:44:37;;;;;;;10.95;4.68;;;;;;;21.74;45.61;93398.84;5066776;28;20055;-77
2021/07/05 06:47:03;;;;;;;8.70;4.55;;;;;;;21.79;44.84;93395.69;5073734;28;20111;-76
2021/07/05 06:49:29;;;;;;;7.90;4.95;;;;;;;21.86;44.45;93389.50;5065435;28;20083;-78
2021/07/05 06:51:57;;;;;;;8.07;5.13;;;;;;;21.94;44.24;93390.19;5059189;28;20032;-79
2021/07/05 06:54:22;;;;;;;7.32;4.38;;;;;;;22.06;42.94;93395.16;5055406;28;20025;-79
2021/07/05 06:56:48;;;;;;;14.70;4.32;;;;;;;22.04;42.68;93400.22;5053757;28;20385;-79
2021/07/05 06:59:13;;;;;;;10.35;4.10;;;;;;;22.12;42.80;93401.72;5053373;28;20620;-74
2021/07/05 07:01:39;;;;;;;7.75;4.30;;;;;;;22.15;43.11;93392.78;5053118;28;20025;-78
2021/07/05 07:04:04;;;;;;;19.08;5.53;;;;;;;22.22;43.63;93394.69;5053747;28;20021;-78
2021/07/05 07:06:30;;;;;;;9.20;4.65;;;;;;;22.31;43.91;93399.69;5062931;28;20052;-74
2021/07/05 07:08:55;;;;;;;10.02;5.35;;;;;;;22.41;43.16;93407.78;5073025;28;20384;-72
2021/07/05 07:11:21;;;;;;;7.00;4.65;;;;;;;22.52;42.85;93402.25;5064058;28;20043;-75
2021/07/05 07:13:47;;;;;;;13.15;4.53;;;;;;;22.67;42.89;93400.19;5052358;28;20115;-74
2021/07/05 07:16:15;;;;;;;11.98;4.43;;;;;;;22.75;42.60;93401.66;5052765;28;20029;-76
2021/07/05 07:18:58;;;;;;;12.30;4.78;;;;;;;22.90;42.47;93393.38;5068059;28;20025;-77
2021/07/05 07:21:25;;;;;;;12.23;4.53;;;;;;;23.05;42.25;93392.13;5060792;28;20230;-77
2021/07/05 07:23:51;;;;;;;8.90;4.50;;;;;;;23.18;42.47;93392.34;5054238;28;20519;-78
2021/07/05 07:26:17;;;;;;;11.73;4.80;;;;;;;23.31;41.11;93392.63;5059537;28;20396;-80
2021/07/05 07:28:42;;;;;;;11.07;4.78;;;;;;;23.34;41.57;93387.13;5072962;28;20008;-75
2021/07/05 07:31:08;;;;;;;8.15;4.78;;;;;;;23.43;41.05;93392.88;5073115;28;20035;-76
2021/07/05 07:33:33;;;;;;;13.27;5.03;;;;;;;23.47;40.10;93392.84;5072530;28;20067;-75
2021/07/05 07:36:02;;;;;;;12.68;4.53;;;;;;;23.48;40.03;93388.94;5052703;28;20399;-76
2021/07/05 07:38:31;;;;;;;15.02;4.95;;;;;;;23.50;40.31;93386.56;5054127;28;20021;-77
2021/07/05 07:40:56;;;;;;;13.85;5.10;;;;;;;23.58;41.10;93396.19;5053559;28;20373;-76
2021/07/05 07:43:22;;;;;;;11.52;5.05;;;;;;;23.67;40.49;93398.44;5051238;28;20087;-78
2021/07/05 07:45:47;;;;;;;9.52;5.18;;;;;;;23.72;39.42;93387.09;5062260;28;20403;-77
2021/07/05 07:48:13;;;;;;;13.20;4.90;;;;;;;23.73;39.75;93383.19;5068845;28;20024;-78
2021/07/05 07:50:38;;;;;;;11.70;5.20;;;;;;;23.73;40.44;93388.63;5071389;28;20028;-76
2021/07/05 07:53:03;;;;;;;9.57;5.60;;;;;;;23.82;40.72;93391.66;5070860;28;20029;-77
2021/07/05 07:55:29;;;;;;;9.18;5.18;;;;;;;23.95;42.22;93388.38;5058833;28;20036;-76
2021/07/05 07:57:54;;;;;;;16.90;4.97;;;;;;;24.00;41.43;93387.94;5051891;28;20052;-75
2021/07/05 08:00:20;;;;;;;15.00;6.05;;;;;;;24.11;42.01;93388.53;5052193;28;20085;-75
2021/07/05 08:02:46;;;;;;;9.18;5.65;;;;;;;24.27;40.73;93382.47;5052001;28;20028;-76
2021/07/05 08:05:11;;;;;;;9.15;5.55;;;;;;;24.47;40.82;93382.56;5060949;28;20446;-77
2021/07/05 08:07:40;;;;;;;9.85;5.05;;;;;;;24.63;38.97;93381.97;5072402;28;20043;-77
2021/07/05 08:10:06;;;;;;;13.48;5.53;;;;;;;24.77;38.72;93376.28;5061124;28;20029;-79
2021/07/05 08:12:32;;;;;;;11.05;4.57;;;;;;;24.99;38.60;93386.78;5073371;28;20028;-75
2021/07/05 08:14:57;;;;;;;11.00;4.43;;;;;;;25.20;37.47;93380.19;5072102;28;20098;-73
2021/07/05 08:17:23;;;;;;;8.30;4.65;;;;;;;25.30;35.95;93379.25;5071961;28;20067;-75
2021/07/05 08:19:48;;;;;;;13.52;5.07;;;;;;;25.29;37.22;93377.72;5056879;28;20086;-75
2021/07/05 08:22:13;;;;;;;13.07;4.18;;;;;;;25.30;35.77;93375.75;5051599;28;20044;-76
2021/07/05 08:24:39;;;;;;;7.85;4.40;;;;;;;25.36;35.93;93379.53;5052174;28;20021;-76
2021/07/05 08:27:04;;;;;;;11.48;4.38;;;;;;;25.36;35.43;93365.88;5051400;28;20052;-67
2021/07/05 08:29:31;;;;;;;9.98;5.07;;;;;;;25.23;35.48;93371.19;5055350;28;20126;-67
2021/07/05 08:31:56;;;;;;;10.00;4.72;;;;;;;25.22;37.93;93372.41;5071823;28;20055;-68
2021/07/05 08:34:22;;;;;;;19.23;5.72;;;;;;;25.26;37.45;93367.66;5070200;28;20029;-68
2021/07/05 08:36:47;;;;;;;11.50;5.00;;;;;;;25.25;37.06;93365.34;5071929;28;20510;-67
2021/07/05 08:39:13;;;;;;;12.70;6.32;;;;;;;25.25;36.91;93366.09;5062788;28;20039;-69
2021/07/05 08:41:40;;;;;;;11.48;5.93;;;;;;;25.20;37.65;93359.16;5051388;28;20040;-69
2021/07/05 08:44:07;;;;;;;9.23;5.40;;;;;;;25.22;37.67;93366.94;5051509;28;20059;-68
2021/07/05 08:46:33;;;;;;;9.82;4.75;;;;;;;25.22;37.34;93361.50;5054098;28;20104;-69
2021/07/05 08:48:59;;;;;;;9.00;5.20;;;;;;;25.29;38.39;93360.56;5057425;28;20017;-69
2021/07/05 08:51:26;;;;;;;10.52;5.63;;;;;;;25.22;38.33;93354.06;5051571;28;20069;-70
2021/07/05 08:53:52;;;;;;;9.57;5.72;;;;;;;25.35;39.93;93356.94;5050490;28;20033;-70
2021/07/05 08:56:19;;;;;;;14.88;5.88;;;;;;;25.39;37.18;93357.63;5058272;28;20029;-69
2021/07/05 08:58:46;;;;;;;15.45;5.22;;;;;;;25.39;37.09;93354.16;5071417;28;20403;-68
2021/07/05 09:01:12;;;;;;;11.30;5.95;;;;;;;25.42;38.82;93356.81;5070888;28;20025;-68
2021/07/05 09:03:38;;;;;;;12.55;6.38;;;;;;;25.45;38.62;93354.44;5059390;28;20054;-69
2021/07/05 09:06:14;;;;;;;11.88;6.30;;;;;;;25.46;38.41;93342.31;5059772;28;20112;-67
2021/07/05 09:08:42;;;;;;;20.48;5.72;;;;;;;25.51;39.49;93347.28;5051011;28;20032;-69
2021/07/05 09:11:18;;;;;;;15.02;5.90;;;;;;;25.58;37.49;93339.72;5049977;28;20029;-68
2021/07/05 09:13:50;;;;;;;12.27;4.85;;;;;;;25.59;37.86;93333.06;5049614;28;20028;-68
2021/07/05 09:16:31;;;;;;;9.05;5.30;;;;;;;25.64;39.56;93331.81;5050050;28;20115;-69
2021/07/05 09:18:57;;;;;;;22.52;4.80;;;;;;;25.73;36.27;93334.75;5069939;28;20060;-68
2021/07/05 09:21:26;;;;;;;7.85;3.65;;;;;;;25.75;36.02;93343.28;5070873;28;20075;-69
2021/07/05 09:24:01;;;;;;;9.00;3.50;;;;;;;25.69;34.79;93336.78;5060901;28;20060;-68
2021/07/05 09:26:30;;;;;;;5.90;2.78;;;;;;;25.68;34.30;93334.47;5055900;28;20501;-69
2021/07/05 09:28:57;;;;;;;6.50;2.67;;;;;;;25.64;34.66;93337.25;5070618;28;20026;-70
2021/07/05 09:31:47;;;;;;;6.47;2.90;;;;;;;25.60;35.62;93331.09;5070608;28;20031;-69
2021/07/05 09:34:37;;;;;;;7.45;2.85;;;;;;;25.64;35.54;93326.34;5069120;28;20107;-69
2021/07/05 09:37:09;;;;;;;9.93;2.92;;;;;;;25.68;35.03;93313.38;5068306;28;20099;-69
2021/07/05 09:39:34;;;;;;;5.88;3.33;;;;;;;25.83;34.25;93317.38;5049909;28;20545;-68
2021/07/05 09:41:59;;;;;;;10.13;3.40;;;;;;;25.94;34.29;93317.16;5070182;28;20045;-68
2021/07/05 09:44:28;;;;;;;12.88;3.53;;;;;;;25.93;35.13;93320.28;5070421;28;20067;-68
2021/07/05 09:46:56;;;;;;;6.30;3.00;;;;;;;26.05;35.14;93310.66;5068960;28;21457;-68
2021/07/05 09:49:30;;;;;;;8.63;3.58;;;;;;;26.17;33.89;93308.03;5070298;28;20538;-69
2021/07/05 09:52:25;;;;;;;11.32;2.88;;;;;;;26.17;34.71;93307.25;5070162;28;20261;-68
2021/07/05 09:54:56;;;;;;;13.48;2.83;;;;;;;26.30;33.42;93304.66;5058571;28;20114;-68
2021/07/05 09:57:27;;;;;;;5.13;2.80;;;;;;;26.35;33.64;93298.66;5048752;28;20488;-68
2021/07/05 10:00:08;;;;;;;16.33;3.55;;;;;;;26.40;34.38;93309.84;5066048;28;20120;-67
2021/07/05 10:02:35;;;;;;;4.50;3.20;;;;;;;26.40;33.29;93304.38;5057508;28;20064;-67
2021/07/05 10:05:17;;;;;;;9.23;3.17;;;;;;;26.47;34.72;93299.94;5055513;28;20033;-67
2021/07/05 10:07:43;;;;;;;7.07;3.08;;;;;;;26.48;33.89;93315.13;5055785;28;20021;-68
2021/07/05 10:10:20;;;;;;;4.90;2.90;;;;;;;26.53;34.20;93309.91;5063292;28;20542;-68
2021/07/05 10:12:56;;;;;;;7.63;2.95;;;;;;;26.57;34.59;93301.63;5055231;28;20124;-67
2021/07/05 10:15:23;;;;;;;4.85;2.42;;;;;;;26.65;34.88;93308.47;5062825;28;20103;-68
2021/07/05 10:17:50;;;;;;;6.72;2.78;;;;;;;26.58;33.33;93300.44;5057317;28;20525;-67
2021/07/05 10:20:29;;;;;;;7.05;2.60;;;;;;;26.66;34.35;93298.31;5055820;28;20073;-67
2021/07/05 10:22:57;;;;;;;4.28;2.50;;;;;;;26.82;33.37;93293.56;5069377;28;20035;-67
2021/07/05 10:25:25;;;;;;;4.32;2.53;;;;;;;26.82;34.38;93303.75;5062520;28;20056;-67
2021/07/05 10:27:51;;;;;;;5.22;2.88;;;;;;;26.70;34.62;93296.25;5061213;28;20024;-68
2021/07/05 10:30:19;;;;;;;9.07;3.40;;;;;;;26.77;33.80;93288.63;5059585;28;20025;-66
2021/07/05 10:32:45;;;;;;;14.27;3.53;;;;;;;26.83;34.80;93286.16;5052386;28;20083;-67
2021/07/05 10:35:14;;;;;;;6.80;3.45;;;;;;;26.91;34.51;93289.44;5049589;28;20028;-67
2021/07/05 10:37:48;;;;;;;4.47;2.75;;;;;;;26.64;35.12;93290.53;5049237;28;20041;-68
2021/07/05 10:40:14;;;;;;;5.85;2.95;;;;;;;26.68;35.11;93290.44;5049374;28;20036;-67
2021/07/05 10:42:42;;;;;;;8.77;3.05;;;;;;;26.58;34.82;93275.84;5049476;28;20045;-67
2021/07/05 10:45:11;;;;;;;7.95;2.25;;;;;;;26.69;35.06;93284.56;5048224;28;20074;-67
2021/07/05 10:47:57;;;;;;;7.75;2.63;;;;;;;26.95;35.84;93290.16;5057971;28;20043;-67
2021/07/05 10:50:45;;;;;;;13.07;2.88;;;;;;;26.99;33.72;93288.84;5066824;28;20028;-67
2021/07/05 10:53:12;;;;;;;5.80;2.60;;;;;;;26.90;34.04;93282.47;5064606;28;20111;-67
2021/07/05 10:55:42;;;;;;;6.20;2.90;;;;;;;26.95;33.84;93296.38;5049383;28;20025;-67
2021/07/05 10:58:35;;;;;;;9.73;3.13;;;;;;;26.98;33.34;93290.03;5048202;28;20078;-67
2021/07/05 11:01:07;;;;;;;10.07;2.95;;;;;;;26.90;34.05;93296.13;5048001;28;20045;-68
2021/07/05 11:03:36;;;;;;;8.07;3.08;;;;;;;26.92;33.92;93294.50;5049413;28;20034;-67
2021/07/05 11:06:11;;;;;;;11.40;3.08;;;;;;;26.85;35.17;93282.97;5050198;28;20464;-67
2021/07/05 11:08:43;;;;;;;14.30;3.63;;;;;;;26.90;35.06;93293.41;5067710;28;20507;-67
2021/07/05 11:11:24;;;;;;;11.57;3.10;;;;;;;26.84;35.41;93293.16;5055362;28;20035;-68
2021/07/05 11:14:15;;;;;;;6.57;2.78;;;;;;;26.93;35.90;93281.59;5047961;28;20047;-68
2021/07/05 11:16:55;;;;;;;8.40;3.38;;;;;;;26.96;35.49;93276.03;5047968;28;20079;-68
2021/07/05 11:19:48;;;;;;;6.03;3.30;;;;;;;26.92;35.79;93285.53;5047931;28;20025;-67
2021/07/05 11:22:30;;;;;;;14.50;3.55;;;;;;;27.05;37.31;93274.63;5046886;28;20131;-67
2021/07/05 11:25:17;;;;;;;4.75;3.30;;;;;;;27.23;34.08;93277.66;5061181;28;20077;-67
2021/07/05 11:27:49;;;;;;;4.88;3.22;;;;;;;27.32;34.40;93277.03;5072926;28;20150;-67
2021/07/05 11:30:17;;;;;;;5.28;3.20;;;;;;;27.41;35.42;93277.16;5072659;28;20029;-68
2021/07/05 11:32:58;;;;;;;6.70;3.20;;;;;;;27.23;34.36;93274.94;5069921;28;20113;-68